FIN31V EFHK-EDDM
Flight info
| Callsign | FIN31V |
|---|---|
| Flight time | N/A |
| Altitude | 40000 |
| Route | VALOX Y117 ROSAX DCT ANFEV DCT PENOR DCT SUBIX DCT MAREM DCT BALTU DCT VESUB T106 TUSTO T108 LANDU LANDU2B |
| Aircraft | A359/H-SDE2E3GHIJ3J4J5LM1ORWXY/LB1D1 |
Departure
| Time | 2026-04-20 15:48 |
|---|---|
| Airport | Helsinki Vantaa Airport (EFHK) |
Arrival
| Time | N/A |
|---|---|
| Airport | Munich Airport (EDDM) |
| Time | Latitude | Longitude | Altitude | Speed | Heading |
|---|---|---|---|---|---|
| 2026-04-20 15:21 | 60.31334 | 24.95747 | 173 ft | 0 kts | 317° |
| 2026-04-20 15:33 | 60.31333 | 24.95747 | 173 ft | 0 kts | 317° |
| 2026-04-20 15:37 | 60.31333 | 24.95748 | 173 ft | 0 kts | 317° |
| 2026-04-20 15:40 | 60.31330 | 24.95755 | 173 ft | 2 kts | 317° |
| 2026-04-20 15:40 | 60.31315 | 24.95781 | 173 ft | 3 kts | 317° |
| 2026-04-20 15:40 | 60.31303 | 24.95803 | 173 ft | 2 kts | 315° |
| 2026-04-20 15:40 | 60.31293 | 24.95826 | 173 ft | 3 kts | 288° |
| 2026-04-20 15:41 | 60.31290 | 24.95851 | 173 ft | 3 kts | 255° |
| 2026-04-20 15:41 | 60.31297 | 24.95885 | 173 ft | 3 kts | 235° |
| 2026-04-20 15:41 | 60.31308 | 24.95916 | 173 ft | 2 kts | 228° |
| 2026-04-20 15:41 | 60.31312 | 24.95924 | 173 ft | 0 kts | 227° |
| 2026-04-20 15:43 | 60.31309 | 24.95918 | 173 ft | 5 kts | 227° |
| 2026-04-20 15:44 | 60.31255 | 24.95800 | 173 ft | 14 kts | 227° |
| 2026-04-20 15:44 | 60.31181 | 24.95635 | 173 ft | 17 kts | 234° |
| 2026-04-20 15:44 | 60.31190 | 24.95471 | 172 ft | 10 kts | 316° |
| 2026-04-20 15:44 | 60.31250 | 24.95363 | 172 ft | 13 kts | 319° |
| 2026-04-20 15:45 | 60.31325 | 24.95226 | 173 ft | 16 kts | 317° |
| 2026-04-20 15:45 | 60.31399 | 24.95074 | 173 ft | 4 kts | 310° |
| 2026-04-20 15:45 | 60.31438 | 24.94967 | 174 ft | 15 kts | 289° |
| 2026-04-20 15:45 | 60.31388 | 24.94771 | 170 ft | 19 kts | 225° |
| 2026-04-20 15:46 | 60.31286 | 24.94544 | 165 ft | 25 kts | 228° |
| 2026-04-20 15:46 | 60.31164 | 24.94271 | 164 ft | 28 kts | 228° |
| 2026-04-20 15:46 | 60.31050 | 24.94015 | 164 ft | 14 kts | 238° |
| 2026-04-20 15:46 | 60.31056 | 24.93815 | 165 ft | 15 kts | 297° |
| 2026-04-20 15:47 | 60.31123 | 24.93694 | 164 ft | 11 kts | 337° |
| 2026-04-20 15:47 | 60.31178 | 24.93747 | 165 ft | 10 kts | 47° |
| 2026-04-20 15:47 | 60.31193 | 24.93780 | 165 ft | 14 kts | 47° |
| 2026-04-20 15:47 | 60.31438 | 24.94312 | 168 ft | 88 kts | 47° |
| 2026-04-20 15:48 | 60.31999 | 24.95548 | 179 ft | 150 kts | 47° |
| 2026-04-20 15:48 | 60.32745 | 24.97267 | 723 ft | 162 kts | 45° |
| 2026-04-20 15:48 | 60.33519 | 24.98899 | 1632 ft | 160 kts | 43° |
| 2026-04-20 15:48 | 60.34317 | 25.00583 | 2230 ft | 174 kts | 44° |
| 2026-04-20 15:49 | 60.34888 | 25.01816 | 2487 ft | 187 kts | 44° |
| 2026-04-20 15:49 | 60.35800 | 25.03800 | 2937 ft | 199 kts | 45° |
| 2026-04-20 15:49 | 60.36769 | 25.05938 | 3389 ft | 215 kts | 45° |
| 2026-04-20 15:49 | 60.37824 | 25.08273 | 3828 ft | 233 kts | 45° |
| 2026-04-20 15:50 | 60.38833 | 25.10894 | 4474 ft | 242 kts | 59° |
| 2026-04-20 15:50 | 60.39250 | 25.14229 | 5222 ft | 251 kts | 89° |
| 2026-04-20 15:50 | 60.38788 | 25.17660 | 6063 ft | 256 kts | 110° |
| 2026-04-20 15:50 | 60.38014 | 25.20932 | 6876 ft | 258 kts | 112° |
| 2026-04-20 15:51 | 60.37215 | 25.24209 | 7608 ft | 261 kts | 112° |
| 2026-04-20 15:51 | 60.36416 | 25.27531 | 8356 ft | 264 kts | 111° |
| 2026-04-20 15:51 | 60.35614 | 25.30902 | 9111 ft | 268 kts | 111° |
| 2026-04-20 15:51 | 60.34670 | 25.34178 | 9869 ft | 275 kts | 123° |
| 2026-04-20 15:52 | 60.33188 | 25.36709 | 10567 ft | 288 kts | 147° |
| 2026-04-20 15:52 | 60.31196 | 25.37872 | 10921 ft | 313 kts | 171° |
| 2026-04-20 15:52 | 60.28952 | 25.37969 | 11232 ft | 331 kts | 177° |
| 2026-04-20 15:53 | 60.24250 | 25.36224 | 12119 ft | 358 kts | 201° |
| 2026-04-20 15:53 | 60.22110 | 25.33587 | 12687 ft | 366 kts | 218° |
| 2026-04-20 15:53 | 60.20345 | 25.29904 | 13281 ft | 372 kts | 230° |
| 2026-04-20 15:53 | 60.18734 | 25.25807 | 13865 ft | 376 kts | 232° |
| 2026-04-20 15:54 | 60.17114 | 25.21617 | 14410 ft | 381 kts | 232° |
| 2026-04-20 15:54 | 60.15464 | 25.17389 | 14958 ft | 385 kts | 231° |
| 2026-04-20 15:54 | 60.13794 | 25.13161 | 15497 ft | 389 kts | 231° |
| 2026-04-20 15:54 | 60.12099 | 25.08905 | 16042 ft | 392 kts | 230° |
| 2026-04-20 15:55 | 60.10380 | 25.04613 | 16590 ft | 396 kts | 230° |
| 2026-04-20 15:55 | 60.08665 | 25.00345 | 17126 ft | 400 kts | 230° |
| 2026-04-20 15:55 | 60.06909 | 24.95988 | 17673 ft | 403 kts | 230° |
| 2026-04-20 15:55 | 60.05139 | 24.91607 | 18207 ft | 407 kts | 230° |
| 2026-04-20 15:56 | 60.03347 | 24.87182 | 18711 ft | 410 kts | 230° |
| 2026-04-20 15:56 | 60.01543 | 24.82736 | 19183 ft | 414 kts | 230° |
| 2026-04-20 15:56 | 59.99720 | 24.78249 | 19616 ft | 417 kts | 229° |
| 2026-04-20 15:56 | 59.97879 | 24.73731 | 20057 ft | 421 kts | 229° |
| 2026-04-20 15:57 | 59.96021 | 24.69178 | 20504 ft | 424 kts | 229° |
| 2026-04-20 15:57 | 59.94145 | 24.64592 | 20948 ft | 428 kts | 229° |
| 2026-04-20 15:57 | 59.92254 | 24.59977 | 21385 ft | 431 kts | 229° |
| 2026-04-20 15:57 | 59.90371 | 24.55391 | 21829 ft | 434 kts | 229° |
| 2026-04-20 15:58 | 59.88447 | 24.50712 | 22252 ft | 437 kts | 229° |
| 2026-04-20 15:58 | 59.86511 | 24.46018 | 22685 ft | 440 kts | 229° |
| 2026-04-20 15:58 | 59.84552 | 24.41275 | 23116 ft | 443 kts | 229° |
| 2026-04-20 15:58 | 59.82589 | 24.36531 | 23554 ft | 446 kts | 229° |
| 2026-04-20 15:59 | 59.80608 | 24.31754 | 23969 ft | 449 kts | 229° |
| 2026-04-20 15:59 | 59.78607 | 24.26938 | 24322 ft | 452 kts | 229° |
| 2026-04-20 15:59 | 59.76600 | 24.22121 | 24682 ft | 455 kts | 229° |
| 2026-04-20 15:59 | 59.74566 | 24.17273 | 25060 ft | 457 kts | 227° |
| 2026-04-20 16:00 | 59.72330 | 24.12808 | 25419 ft | 457 kts | 218° |
| 2026-04-20 16:00 | 59.69857 | 24.08842 | 25795 ft | 458 kts | 214° |
| 2026-04-20 16:00 | 59.67291 | 24.05092 | 26195 ft | 460 kts | 212° |
| 2026-04-20 16:00 | 59.64669 | 24.01443 | 26590 ft | 462 kts | 211° |
| 2026-04-20 16:01 | 59.62008 | 23.97818 | 27018 ft | 465 kts | 210° |
| 2026-04-20 16:01 | 59.59332 | 23.94184 | 27443 ft | 468 kts | 211° |
| 2026-04-20 16:01 | 59.56647 | 23.90508 | 27884 ft | 471 kts | 211° |
| 2026-04-20 16:01 | 59.53984 | 23.86829 | 28322 ft | 474 kts | 211° |
| 2026-04-20 16:02 | 59.51282 | 23.83069 | 28767 ft | 477 kts | 211° |
| 2026-04-20 16:02 | 59.48596 | 23.79204 | 29186 ft | 483 kts | 215° |
| 2026-04-20 16:02 | 59.46088 | 23.74734 | 29613 ft | 489 kts | 220° |
| 2026-04-20 16:02 | 59.43661 | 23.70008 | 30051 ft | 492 kts | 222° |
| 2026-04-20 16:03 | 59.41264 | 23.65172 | 30462 ft | 496 kts | 223° |
| 2026-04-20 16:03 | 59.38876 | 23.60262 | 30892 ft | 498 kts | 224° |
| 2026-04-20 16:03 | 59.36502 | 23.55342 | 31336 ft | 499 kts | 224° |
| 2026-04-20 16:03 | 59.34107 | 23.50387 | 31731 ft | 501 kts | 224° |
| 2026-04-20 16:04 | 59.31691 | 23.45421 | 32132 ft | 503 kts | 224° |
| 2026-04-20 16:04 | 59.29262 | 23.40463 | 32523 ft | 505 kts | 224° |
| 2026-04-20 16:04 | 59.26822 | 23.35515 | 32893 ft | 507 kts | 224° |
| 2026-04-20 16:04 | 59.24360 | 23.30544 | 33267 ft | 509 kts | 223° |
| 2026-04-20 16:05 | 59.21886 | 23.25566 | 33615 ft | 511 kts | 223° |
| 2026-04-20 16:05 | 59.19395 | 23.20569 | 33975 ft | 513 kts | 223° |
| 2026-04-20 16:05 | 59.16930 | 23.15633 | 34276 ft | 516 kts | 223° |
| 2026-04-20 16:05 | 59.14418 | 23.10615 | 34550 ft | 518 kts | 224° |
| 2026-04-20 16:06 | 59.11896 | 23.05584 | 34841 ft | 520 kts | 224° |
| 2026-04-20 16:06 | 59.09378 | 23.00573 | 35198 ft | 519 kts | 224° |
| 2026-04-20 16:06 | 59.06846 | 22.95545 | 35604 ft | 517 kts | 224° |
| 2026-04-20 16:06 | 59.04332 | 22.90561 | 35978 ft | 517 kts | 224° |
| 2026-04-20 16:07 | 59.01820 | 22.85595 | 36335 ft | 516 kts | 224° |
| 2026-04-20 16:07 | 58.99302 | 22.80629 | 36685 ft | 516 kts | 224° |
| 2026-04-20 16:07 | 58.96781 | 22.75668 | 37027 ft | 515 kts | 224° |
| 2026-04-20 16:07 | 58.94260 | 22.70718 | 37339 ft | 515 kts | 224° |
| 2026-04-20 16:08 | 58.91744 | 22.65788 | 37657 ft | 515 kts | 224° |
| 2026-04-20 16:08 | 58.89211 | 22.60836 | 38021 ft | 514 kts | 224° |
| 2026-04-20 16:08 | 58.86724 | 22.55985 | 38363 ft | 514 kts | 224° |
| 2026-04-20 16:08 | 58.84211 | 22.51093 | 38687 ft | 513 kts | 224° |
| 2026-04-20 16:09 | 58.81692 | 22.46201 | 38960 ft | 513 kts | 224° |
| 2026-04-20 16:09 | 58.79184 | 22.41341 | 39204 ft | 513 kts | 224° |
| 2026-04-20 16:09 | 58.76661 | 22.36465 | 39413 ft | 513 kts | 224° |
| 2026-04-20 16:09 | 58.74135 | 22.31608 | 39606 ft | 513 kts | 224° |
| 2026-04-20 16:10 | 58.71610 | 22.26754 | 39796 ft | 513 kts | 224° |
| 2026-04-20 16:10 | 58.69077 | 22.21885 | 40013 ft | 512 kts | 224° |
| 2026-04-20 16:10 | 58.66551 | 22.17035 | 40202 ft | 512 kts | 224° |
| 2026-04-20 16:10 | 58.64053 | 22.12248 | 40317 ft | 515 kts | 224° |
| 2026-04-20 16:11 | 58.58923 | 22.02460 | 40321 ft | 524 kts | 224° |
| 2026-04-20 16:11 | 58.53700 | 21.92542 | 40320 ft | 530 kts | 224° |
| 2026-04-20 16:12 | 58.48433 | 21.82590 | 40316 ft | 532 kts | 224° |
| 2026-04-20 16:12 | 58.43192 | 21.72728 | 40316 ft | 532 kts | 224° |
| 2026-04-20 16:13 | 58.37911 | 21.62837 | 40309 ft | 531 kts | 224° |
| 2026-04-20 16:13 | 58.32630 | 21.52988 | 40320 ft | 531 kts | 224° |
| 2026-04-20 16:14 | 58.27340 | 21.43168 | 40320 ft | 531 kts | 224° |
| 2026-04-20 16:14 | 58.22079 | 21.33443 | 40318 ft | 530 kts | 224° |
| 2026-04-20 16:15 | 58.16788 | 21.23706 | 40315 ft | 530 kts | 224° |
| 2026-04-20 16:15 | 58.11490 | 21.13998 | 40317 ft | 530 kts | 224° |
| 2026-04-20 16:16 | 58.06157 | 21.04368 | 40316 ft | 529 kts | 223° |
| 2026-04-20 16:16 | 58.00815 | 20.94777 | 40310 ft | 529 kts | 223° |
| 2026-04-20 16:17 | 57.95524 | 20.85219 | 40314 ft | 529 kts | 223° |
| 2026-04-20 16:17 | 57.90220 | 20.75633 | 40315 ft | 529 kts | 223° |
| 2026-04-20 16:18 | 57.84900 | 20.66068 | 40317 ft | 528 kts | 223° |
| 2026-04-20 16:18 | 57.79581 | 20.56566 | 40312 ft | 528 kts | 223° |
| 2026-04-20 16:19 | 57.74251 | 20.47078 | 40315 ft | 528 kts | 223° |
| 2026-04-20 16:19 | 57.68924 | 20.37640 | 40313 ft | 527 kts | 223° |
| 2026-04-20 16:20 | 57.63592 | 20.28240 | 40318 ft | 527 kts | 223° |
| 2026-04-20 16:20 | 57.58291 | 20.18936 | 40313 ft | 527 kts | 223° |
| 2026-04-20 16:21 | 57.52947 | 20.09597 | 40311 ft | 526 kts | 223° |
| 2026-04-20 16:21 | 57.47591 | 20.00273 | 40311 ft | 526 kts | 223° |
| 2026-04-20 16:22 | 57.42237 | 19.90993 | 40312 ft | 526 kts | 223° |
| 2026-04-20 16:22 | 57.36871 | 19.81732 | 40309 ft | 526 kts | 223° |
| 2026-04-20 16:23 | 57.31508 | 19.72515 | 40312 ft | 526 kts | 223° |
| 2026-04-20 16:23 | 57.26149 | 19.63342 | 40314 ft | 526 kts | 223° |
| 2026-04-20 16:24 | 57.20786 | 19.54202 | 40306 ft | 526 kts | 223° |
| 2026-04-20 16:24 | 57.15403 | 19.45063 | 40313 ft | 526 kts | 222° |
| 2026-04-20 16:25 | 57.10007 | 19.35943 | 40304 ft | 526 kts | 222° |
| 2026-04-20 16:25 | 57.04589 | 19.26820 | 40308 ft | 526 kts | 222° |
| 2026-04-20 16:26 | 56.99185 | 19.17761 | 40311 ft | 527 kts | 222° |
| 2026-04-20 16:26 | 56.93763 | 19.08707 | 40304 ft | 527 kts | 222° |
| 2026-04-20 16:27 | 56.88364 | 18.99729 | 40305 ft | 527 kts | 222° |
| 2026-04-20 16:27 | 56.82923 | 18.90717 | 40302 ft | 527 kts | 222° |
| 2026-04-20 16:28 | 56.77981 | 18.80933 | 40301 ft | 525 kts | 240° |
| 2026-04-20 16:28 | 56.76499 | 18.74919 | 40295 ft | 511 kts | 255° |
| 2026-04-20 16:28 | 56.75867 | 18.68694 | 40297 ft | 492 kts | 269° |
| 2026-04-20 16:29 | 56.76102 | 18.62689 | 40297 ft | 472 kts | 285° |
| 2026-04-20 16:29 | 56.77175 | 18.57148 | 40295 ft | 445 kts | 301° |
| 2026-04-20 16:29 | 56.78926 | 18.52701 | 40298 ft | 430 kts | 317° |
| 2026-04-20 16:29 | 56.81268 | 18.49409 | 40311 ft | 424 kts | 334° |
| 2026-04-20 16:30 | 56.86600 | 18.45086 | 40312 ft | 420 kts | 330° |
| 2026-04-20 16:30 | 56.88926 | 18.41826 | 40308 ft | 423 kts | 318° |
| 2026-04-20 16:30 | 56.90835 | 18.37718 | 40316 ft | 426 kts | 309° |
| 2026-04-20 16:31 | 56.94245 | 18.28796 | 40317 ft | 429 kts | 307° |
| 2026-04-20 16:31 | 56.97650 | 18.19780 | 40320 ft | 429 kts | 307° |
| 2026-04-20 16:32 | 57.01443 | 18.11409 | 40317 ft | 418 kts | 326° |
| 2026-04-20 16:32 | 57.03952 | 18.08938 | 40319 ft | 407 kts | 343° |
| 2026-04-20 16:32 | 57.06719 | 18.08010 | 40322 ft | 401 kts | 1° |
| 2026-04-20 16:33 | 57.09455 | 18.08699 | 40324 ft | 398 kts | 19° |
| 2026-04-20 16:33 | 57.11934 | 18.10930 | 40323 ft | 398 kts | 36° |
| 2026-04-20 16:33 | 57.13908 | 18.14491 | 40326 ft | 399 kts | 54° |
| 2026-04-20 16:33 | 57.15177 | 18.19027 | 40326 ft | 401 kts | 71° |
| 2026-04-20 16:34 | 57.15619 | 18.24023 | 40326 ft | 405 kts | 89° |
| 2026-04-20 16:34 | 57.15197 | 18.29183 | 40330 ft | 410 kts | 106° |
| 2026-04-20 16:34 | 57.13932 | 18.33915 | 40324 ft | 415 kts | 123° |
| 2026-04-20 16:34 | 57.12694 | 18.36611 | 40326 ft | 418 kts | 133° |
| 2026-04-20 16:35 | 57.08852 | 18.44598 | 40323 ft | 415 kts | 114° |
| 2026-04-20 16:35 | 57.07917 | 18.49559 | 40320 ft | 409 kts | 96° |
| 2026-04-20 16:35 | 57.08025 | 18.56376 | 40321 ft | 402 kts | 73° |
| 2026-04-20 16:36 | 57.08661 | 18.59623 | 40325 ft | 399 kts | 61° |
| 2026-04-20 16:36 | 57.10244 | 18.63767 | 40321 ft | 396 kts | 44° |
| 2026-04-20 16:36 | 57.12448 | 18.66770 | 40322 ft | 395 kts | 26° |
| 2026-04-20 16:36 | 57.14966 | 18.68840 | 40321 ft | 397 kts | 26° |
| 2026-04-20 16:37 | 57.17237 | 18.71608 | 40326 ft | 400 kts | 43° |
| 2026-04-20 16:37 | 57.19105 | 18.75530 | 40329 ft | 405 kts | 51° |
| 2026-04-20 16:37 | 57.22053 | 18.84349 | 40335 ft | 412 kts | 65° |
| 2026-04-20 16:38 | 57.22932 | 18.89430 | 40329 ft | 419 kts | 77° |
| 2026-04-20 16:38 | 57.23204 | 18.94810 | 40328 ft | 427 kts | 89° |
| 2026-04-20 16:38 | 57.22836 | 19.00309 | 40327 ft | 435 kts | 101° |
| 2026-04-20 16:38 | 57.21826 | 19.05617 | 40325 ft | 443 kts | 114° |
| 2026-04-20 16:39 | 57.20201 | 19.10509 | 40322 ft | 452 kts | 126° |
| 2026-04-20 16:39 | 57.18008 | 19.14745 | 40321 ft | 460 kts | 138° |
| 2026-04-20 16:39 | 57.15336 | 19.18066 | 40315 ft | 468 kts | 150° |
| 2026-04-20 16:39 | 57.12286 | 19.20282 | 40314 ft | 476 kts | 164° |
| 2026-04-20 16:40 | 57.09034 | 19.21219 | 40316 ft | 482 kts | 177° |
| 2026-04-20 16:40 | 57.05673 | 19.20797 | 40313 ft | 488 kts | 191° |
| 2026-04-20 16:40 | 57.02420 | 19.18978 | 40312 ft | 492 kts | 204° |
| 2026-04-20 16:40 | 56.99433 | 19.15878 | 40315 ft | 495 kts | 215° |
| 2026-04-20 16:41 | 56.94031 | 19.07837 | 40309 ft | 504 kts | 222° |
| 2026-04-20 16:41 | 56.88774 | 18.99172 | 40310 ft | 513 kts | 222° |
| 2026-04-20 16:42 | 56.83361 | 18.90543 | 40307 ft | 520 kts | 221° |
| 2026-04-20 16:42 | 56.77822 | 18.81975 | 40301 ft | 524 kts | 221° |
| 2026-04-20 16:43 | 56.72200 | 18.73433 | 40302 ft | 526 kts | 220° |
| 2026-04-20 16:43 | 56.66552 | 18.64984 | 40301 ft | 525 kts | 220° |
| 2026-04-20 16:44 | 56.60906 | 18.56563 | 40298 ft | 525 kts | 220° |
| 2026-04-20 16:44 | 56.55301 | 18.48217 | 40299 ft | 524 kts | 220° |
| 2026-04-20 16:45 | 56.49652 | 18.39827 | 40297 ft | 523 kts | 220° |
| 2026-04-20 16:45 | 56.44029 | 18.31494 | 40299 ft | 522 kts | 220° |
| 2026-04-20 16:46 | 56.38443 | 18.23237 | 40295 ft | 521 kts | 220° |
| 2026-04-20 16:46 | 56.32828 | 18.14966 | 40295 ft | 521 kts | 220° |
| 2026-04-20 16:47 | 56.27202 | 18.06734 | 40293 ft | 520 kts | 220° |
| 2026-04-20 16:47 | 56.21581 | 17.98531 | 40294 ft | 520 kts | 220° |
| 2026-04-20 16:48 | 56.15957 | 17.90359 | 40292 ft | 519 kts | 220° |
| 2026-04-20 16:48 | 56.10332 | 17.82219 | 40293 ft | 519 kts | 220° |
| 2026-04-20 16:49 | 56.04738 | 17.74141 | 40288 ft | 519 kts | 220° |
| 2026-04-20 16:49 | 55.99107 | 17.66063 | 40291 ft | 518 kts | 220° |
| 2026-04-20 16:50 | 55.93480 | 17.58028 | 40287 ft | 518 kts | 220° |
| 2026-04-20 16:50 | 55.87849 | 17.50019 | 40287 ft | 517 kts | 219° |
| 2026-04-20 16:51 | 55.82258 | 17.42089 | 40287 ft | 516 kts | 220° |
| 2026-04-20 16:51 | 55.76643 | 17.34126 | 40285 ft | 516 kts | 220° |
| 2026-04-20 16:52 | 55.71026 | 17.26195 | 40281 ft | 515 kts | 220° |
| 2026-04-20 16:52 | 55.65399 | 17.18365 | 40275 ft | 515 kts | 217° |
| 2026-04-20 16:53 | 55.59184 | 17.11991 | 40283 ft | 516 kts | 209° |
| 2026-04-20 16:53 | 55.52786 | 17.06428 | 40277 ft | 516 kts | 207° |
| 2026-04-20 16:54 | 55.46308 | 17.00990 | 40280 ft | 515 kts | 207° |
| 2026-04-20 16:54 | 55.39840 | 16.95537 | 40277 ft | 514 kts | 207° |
| 2026-04-20 16:55 | 55.33401 | 16.90075 | 40271 ft | 514 kts | 207° |
| 2026-04-20 16:55 | 55.27556 | 16.85146 | 40272 ft | 514 kts | 207° |
| 2026-04-20 16:56 | 55.21110 | 16.79728 | 40264 ft | 515 kts | 207° |
| 2026-04-20 16:56 | 55.14666 | 16.74329 | 40264 ft | 515 kts | 207° |
| 2026-04-20 16:57 | 55.08194 | 16.68931 | 40262 ft | 515 kts | 207° |
| 2026-04-20 16:57 | 55.01734 | 16.63549 | 40262 ft | 514 kts | 207° |
| 2026-04-20 16:58 | 54.95281 | 16.58153 | 40256 ft | 514 kts | 207° |
| 2026-04-20 16:58 | 54.88845 | 16.52782 | 40252 ft | 513 kts | 207° |
| 2026-04-20 16:59 | 54.82434 | 16.47471 | 40255 ft | 513 kts | 207° |
| 2026-04-20 16:59 | 54.75993 | 16.42171 | 40249 ft | 512 kts | 207° |
| 2026-04-20 17:00 | 54.66389 | 16.34281 | 40247 ft | 507 kts | 207° |
| 2026-04-20 17:01 | 54.60005 | 16.29074 | 40237 ft | 506 kts | 207° |
| 2026-04-20 17:01 | 54.53667 | 16.23937 | 40239 ft | 505 kts | 207° |
| 2026-04-20 17:02 | 54.47304 | 16.18795 | 40224 ft | 505 kts | 207° |
| 2026-04-20 17:02 | 54.40940 | 16.13679 | 40229 ft | 505 kts | 207° |
| 2026-04-20 17:03 | 54.34571 | 16.08552 | 40230 ft | 504 kts | 207° |